sensor_id;sensor_type;location;lat;lon;timestamp;P1;durP1;ratioP1;P2;durP2;ratioP2
41233;SDS011;26968;42.686;23.352;2023-04-24T00:01:13;10.38;;;5.57;;
41233;SDS011;26968;42.686;23.352;2023-04-24T00:03:40;13.95;;;5.50;;
41233;SDS011;26968;42.686;23.352;2023-04-24T00:06:06;8.07;;;5.03;;
41233;SDS011;26968;42.686;23.352;2023-04-24T00:08:33;13.95;;;4.75;;
41233;SDS011;26968;42.686;23.352;2023-04-24T00:11:01;10.02;;;4.13;;
41233;SDS011;26968;42.686;23.352;2023-04-24T00:13:27;9.65;;;4.65;;
41233;SDS011;26968;42.686;23.352;2023-04-24T00:15:53;8.90;;;4.40;;
41233;SDS011;26968;42.686;23.352;2023-04-24T00:18:22;13.65;;;4.93;;
41233;SDS011;26968;42.686;23.352;2023-04-24T00:20:47;10.73;;;4.72;;
41233;SDS011;26968;42.686;23.352;2023-04-24T00:23:13;16.08;;;4.82;;
41233;SDS011;26968;42.686;23.352;2023-04-24T00:25:38;12.30;;;4.90;;
41233;SDS011;26968;42.686;23.352;2023-04-24T00:28:05;7.07;;;4.28;;
41233;SDS011;26968;42.686;23.352;2023-04-24T00:30:30;9.10;;;5.28;;
41233;SDS011;26968;42.686;23.352;2023-04-24T00:32:56;12.32;;;5.32;;
41233;SDS011;26968;42.686;23.352;2023-04-24T00:35:22;14.35;;;5.20;;
41233;SDS011;26968;42.686;23.352;2023-04-24T00:37:48;8.98;;;5.30;;
41233;SDS011;26968;42.686;23.352;2023-04-24T00:40:13;10.52;;;5.38;;
41233;SDS011;26968;42.686;23.352;2023-04-24T00:42:39;10.48;;;5.10;;
41233;SDS011;26968;42.686;23.352;2023-04-24T00:45:06;11.23;;;5.25;;
41233;SDS011;26968;42.686;23.352;2023-04-24T00:47:32;17.27;;;4.75;;
41233;SDS011;26968;42.686;23.352;2023-04-24T00:49:58;6.10;;;4.60;;
41233;SDS011;26968;42.686;23.352;2023-04-24T00:52:25;9.23;;;4.72;;
41233;SDS011;26968;42.686;23.352;2023-04-24T00:54:50;14.73;;;5.70;;
41233;SDS011;26968;42.686;23.352;2023-04-24T00:57:16;9.85;;;4.93;;
41233;SDS011;26968;42.686;23.352;2023-04-24T00:59:42;11.75;;;5.05;;
41233;SDS011;26968;42.686;23.352;2023-04-24T01:02:08;10.88;;;5.30;;
41233;SDS011;26968;42.686;23.352;2023-04-24T01:04:35;12.55;;;4.97;;
41233;SDS011;26968;42.686;23.352;2023-04-24T01:07:01;9.35;;;5.13;;
41233;SDS011;26968;42.686;23.352;2023-04-24T01:09:27;10.23;;;5.38;;
41233;SDS011;26968;42.686;23.352;2023-04-24T01:11:53;8.13;;;4.97;;
41233;SDS011;26968;42.686;23.352;2023-04-24T01:14:20;7.22;;;4.70;;
41233;SDS011;26968;42.686;23.352;2023-04-24T01:16:46;18.13;;;6.18;;
41233;SDS011;26968;42.686;23.352;2023-04-24T01:19:11;9.63;;;5.00;;
41233;SDS011;26968;42.686;23.352;2023-04-24T01:21:40;15.15;;;5.63;;
41233;SDS011;26968;42.686;23.352;2023-04-24T01:24:08;10.52;;;5.97;;
41233;SDS011;26968;42.686;23.352;2023-04-24T01:26:33;8.20;;;4.95;;
41233;SDS011;26968;42.686;23.352;2023-04-24T01:28:59;7.40;;;4.63;;
41233;SDS011;26968;42.686;23.352;2023-04-24T01:31:25;9.30;;;5.22;;
41233;SDS011;26968;42.686;23.352;2023-04-24T01:33:51;12.38;;;5.32;;
41233;SDS011;26968;42.686;23.352;2023-04-24T01:36:17;9.68;;;5.30;;
41233;SDS011;26968;42.686;23.352;2023-04-24T01:38:44;11.07;;;5.50;;
41233;SDS011;26968;42.686;23.352;2023-04-24T01:41:09;15.40;;;5.60;;
41233;SDS011;26968;42.686;23.352;2023-04-24T01:43:35;11.23;;;5.88;;
41233;SDS011;26968;42.686;23.352;2023-04-24T01:46:00;10.15;;;5.80;;
41233;SDS011;26968;42.686;23.352;2023-04-24T01:48:26;12.20;;;6.38;;
41233;SDS011;26968;42.686;23.352;2023-04-24T01:50:52;13.88;;;6.18;;
41233;SDS011;26968;42.686;23.352;2023-04-24T01:53:17;8.63;;;5.00;;
41233;SDS011;26968;42.686;23.352;2023-04-24T01:55:43;13.00;;;5.45;;
41233;SDS011;26968;42.686;23.352;2023-04-24T01:58:10;11.20;;;5.60;;
41233;SDS011;26968;42.686;23.352;2023-04-24T02:00:35;11.63;;;6.15;;
41233;SDS011;26968;42.686;23.352;2023-04-24T02:03:01;14.98;;;5.35;;
41233;SDS011;26968;42.686;23.352;2023-04-24T02:05:27;11.32;;;6.15;;
41233;SDS011;26968;42.686;23.352;2023-04-24T02:07:52;15.07;;;5.45;;
41233;SDS011;26968;42.686;23.352;2023-04-24T02:10:18;15.27;;;5.30;;
41233;SDS011;26968;42.686;23.352;2023-04-24T02:12:43;17.65;;;6.32;;
41233;SDS011;26968;42.686;23.352;2023-04-24T02:15:09;13.30;;;6.57;;
41233;SDS011;26968;42.686;23.352;2023-04-24T02:17:35;17.05;;;6.60;;
41233;SDS011;26968;42.686;23.352;2023-04-24T02:20:01;14.18;;;6.22;;
41233;SDS011;26968;42.686;23.352;2023-04-24T02:22:27;15.15;;;6.40;;
41233;SDS011;26968;42.686;23.352;2023-04-24T02:24:52;13.27;;;6.57;;
41233;SDS011;26968;42.686;23.352;2023-04-24T02:27:18;15.55;;;6.80;;
41233;SDS011;26968;42.686;23.352;2023-04-24T02:29:43;12.75;;;6.32;;
41233;SDS011;26968;42.686;23.352;2023-04-24T02:32:08;15.15;;;6.78;;
41233;SDS011;26968;42.686;23.352;2023-04-24T02:34:37;17.63;;;7.40;;
41233;SDS011;26968;42.686;23.352;2023-04-24T02:37:02;16.35;;;6.43;;
41233;SDS011;26968;42.686;23.352;2023-04-24T02:39:28;13.98;;;6.38;;
41233;SDS011;26968;42.686;23.352;2023-04-24T02:41:53;17.33;;;6.88;;
41233;SDS011;26968;42.686;23.352;2023-04-24T02:44:19;17.90;;;7.45;;
41233;SDS011;26968;42.686;23.352;2023-04-24T02:46:44;14.55;;;7.25;;
41233;SDS011;26968;42.686;23.352;2023-04-24T02:49:09;16.42;;;6.38;;
41233;SDS011;26968;42.686;23.352;2023-04-24T02:51:36;13.82;;;6.53;;
41233;SDS011;26968;42.686;23.352;2023-04-24T02:54:05;12.88;;;5.78;;
41233;SDS011;26968;42.686;23.352;2023-04-24T02:56:31;12.02;;;7.35;;
41233;SDS011;26968;42.686;23.352;2023-04-24T02:58:56;11.43;;;6.82;;
41233;SDS011;26968;42.686;23.352;2023-04-24T03:01:21;13.93;;;7.20;;
41233;SDS011;26968;42.686;23.352;2023-04-24T03:03:47;18.08;;;7.50;;
41233;SDS011;26968;42.686;23.352;2023-04-24T03:06:12;13.27;;;7.00;;
41233;SDS011;26968;42.686;23.352;2023-04-24T03:08:38;10.27;;;7.07;;
41233;SDS011;26968;42.686;23.352;2023-04-24T03:11:03;16.27;;;7.30;;
41233;SDS011;26968;42.686;23.352;2023-04-24T03:13:29;13.70;;;6.95;;
41233;SDS011;26968;42.686;23.352;2023-04-24T03:15:54;18.58;;;7.60;;
41233;SDS011;26968;42.686;23.352;2023-04-24T03:18:20;20.90;;;8.20;;
41233;SDS011;26968;42.686;23.352;2023-04-24T03:20:45;19.08;;;8.50;;
41233;SDS011;26968;42.686;23.352;2023-04-24T03:23:12;10.65;;;7.18;;
41233;SDS011;26968;42.686;23.352;2023-04-24T03:25:37;19.75;;;8.13;;
41233;SDS011;26968;42.686;23.352;2023-04-24T03:28:03;23.10;;;8.70;;
41233;SDS011;26968;42.686;23.352;2023-04-24T03:30:29;19.05;;;8.40;;
41233;SDS011;26968;42.686;23.352;2023-04-24T03:32:55;23.02;;;8.23;;
41233;SDS011;26968;42.686;23.352;2023-04-24T03:35:20;19.38;;;8.90;;
41233;SDS011;26968;42.686;23.352;2023-04-24T03:37:47;16.80;;;7.90;;
41233;SDS011;26968;42.686;23.352;2023-04-24T03:40:12;19.98;;;8.60;;
41233;SDS011;26968;42.686;23.352;2023-04-24T03:42:38;17.92;;;9.43;;
41233;SDS011;26968;42.686;23.352;2023-04-24T03:45:04;17.10;;;7.78;;
41233;SDS011;26968;42.686;23.352;2023-04-24T03:47:30;18.27;;;8.75;;
41233;SDS011;26968;42.686;23.352;2023-04-24T03:49:55;22.05;;;8.45;;
41233;SDS011;26968;42.686;23.352;2023-04-24T03:52:21;26.60;;;8.98;;
41233;SDS011;26968;42.686;23.352;2023-04-24T03:54:46;21.65;;;7.85;;
41233;SDS011;26968;42.686;23.352;2023-04-24T03:57:12;16.05;;;8.13;;
41233;SDS011;26968;42.686;23.352;2023-04-24T03:59:37;26.23;;;9.07;;
41233;SDS011;26968;42.686;23.352;2023-04-24T04:02:02;15.77;;;8.35;;
41233;SDS011;26968;42.686;23.352;2023-04-24T04:04:28;16.80;;;9.38;;
41233;SDS011;26968;42.686;23.352;2023-04-24T04:06:53;21.52;;;8.95;;
41233;SDS011;26968;42.686;23.352;2023-04-24T04:09:19;29.05;;;8.55;;
41233;SDS011;26968;42.686;23.352;2023-04-24T04:11:44;19.92;;;8.77;;
41233;SDS011;26968;42.686;23.352;2023-04-24T04:14:10;21.35;;;8.80;;
41233;SDS011;26968;42.686;23.352;2023-04-24T04:16:35;24.52;;;8.57;;
41233;SDS011;26968;42.686;23.352;2023-04-24T04:19:03;13.05;;;7.10;;
41233;SDS011;26968;42.686;23.352;2023-04-24T04:21:30;10.18;;;5.68;;
41233;SDS011;26968;42.686;23.352;2023-04-24T04:23:56;14.80;;;5.80;;
41233;SDS011;26968;42.686;23.352;2023-04-24T04:26:21;13.85;;;5.47;;
41233;SDS011;26968;42.686;23.352;2023-04-24T04:28:50;20.05;;;5.57;;
41233;SDS011;26968;42.686;23.352;2023-04-24T04:31:16;14.93;;;5.40;;
41233;SDS011;26968;42.686;23.352;2023-04-24T04:33:42;10.95;;;5.38;;
41233;SDS011;26968;42.686;23.352;2023-04-24T04:36:07;18.73;;;5.85;;
41233;SDS011;26968;42.686;23.352;2023-04-24T04:38:33;13.27;;;5.40;;
41233;SDS011;26968;42.686;23.352;2023-04-24T04:41:00;17.20;;;6.05;;
41233;SDS011;26968;42.686;23.352;2023-04-24T04:43:25;13.38;;;5.10;;
41233;SDS011;26968;42.686;23.352;2023-04-24T04:45:51;14.13;;;5.63;;
41233;SDS011;26968;42.686;23.352;2023-04-24T04:48:17;14.20;;;6.35;;
41233;SDS011;26968;42.686;23.352;2023-04-24T04:50:43;12.18;;;5.93;;
41233;SDS011;26968;42.686;23.352;2023-04-24T04:53:09;19.55;;;5.65;;
41233;SDS011;26968;42.686;23.352;2023-04-24T04:55:35;12.02;;;5.70;;
41233;SDS011;26968;42.686;23.352;2023-04-24T04:58:01;12.68;;;5.68;;
41233;SDS011;26968;42.686;23.352;2023-04-24T05:00:26;14.52;;;5.55;;
41233;SDS011;26968;42.686;23.352;2023-04-24T05:02:53;17.23;;;5.82;;
41233;SDS011;26968;42.686;23.352;2023-04-24T05:05:19;17.15;;;5.85;;
41233;SDS011;26968;42.686;23.352;2023-04-24T05:07:45;14.82;;;6.72;;
41233;SDS011;26968;42.686;23.352;2023-04-24T05:10:10;17.83;;;6.03;;
41233;SDS011;26968;42.686;23.352;2023-04-24T05:12:36;13.15;;;6.28;;
41233;SDS011;26968;42.686;23.352;2023-04-24T05:15:02;19.50;;;6.85;;
41233;SDS011;26968;42.686;23.352;2023-04-24T05:17:28;13.77;;;6.57;;
41233;SDS011;26968;42.686;23.352;2023-04-24T05:19:53;15.02;;;7.28;;
41233;SDS011;26968;42.686;23.352;2023-04-24T05:22:19;22.33;;;7.32;;
41233;SDS011;26968;42.686;23.352;2023-04-24T05:24:46;14.80;;;8.20;;
41233;SDS011;26968;42.686;23.352;2023-04-24T05:27:11;19.77;;;9.07;;
41233;SDS011;26968;42.686;23.352;2023-04-24T05:29:37;16.40;;;8.40;;
41233;SDS011;26968;42.686;23.352;2023-04-24T05:32:03;19.92;;;8.75;;
41233;SDS011;26968;42.686;23.352;2023-04-24T05:34:28;20.50;;;8.85;;
41233;SDS011;26968;42.686;23.352;2023-04-24T05:36:53;23.02;;;9.23;;
41233;SDS011;26968;42.686;23.352;2023-04-24T05:39:20;23.20;;;8.77;;
41233;SDS011;26968;42.686;23.352;2023-04-24T05:41:45;18.85;;;9.10;;
41233;SDS011;26968;42.686;23.352;2023-04-24T05:44:10;24.33;;;8.68;;
41233;SDS011;26968;42.686;23.352;2023-04-24T05:46:36;16.85;;;8.32;;
41233;SDS011;26968;42.686;23.352;2023-04-24T05:49:02;17.77;;;8.60;;
41233;SDS011;26968;42.686;23.352;2023-04-24T05:51:27;19.52;;;8.73;;
41233;SDS011;26968;42.686;23.352;2023-04-24T05:53:53;17.95;;;8.68;;
41233;SDS011;26968;42.686;23.352;2023-04-24T05:56:19;24.85;;;9.27;;
41233;SDS011;26968;42.686;23.352;2023-04-24T05:58:45;19.17;;;9.18;;
41233;SDS011;26968;42.686;23.352;2023-04-24T06:01:11;24.83;;;9.55;;
41233;SDS011;26968;42.686;23.352;2023-04-24T06:03:39;35.25;;;9.95;;
41233;SDS011;26968;42.686;23.352;2023-04-24T06:06:05;20.60;;;9.50;;
41233;SDS011;26968;42.686;23.352;2023-04-24T06:08:32;19.05;;;9.60;;
41233;SDS011;26968;42.686;23.352;2023-04-24T06:10:57;23.10;;;9.95;;
41233;SDS011;26968;42.686;23.352;2023-04-24T06:13:23;23.20;;;9.13;;
41233;SDS011;26968;42.686;23.352;2023-04-24T06:15:50;25.88;;;9.20;;
41233;SDS011;26968;42.686;23.352;2023-04-24T06:18:15;19.60;;;9.38;;
41233;SDS011;26968;42.686;23.352;2023-04-24T06:20:41;19.75;;;8.90;;
41233;SDS011;26968;42.686;23.352;2023-04-24T06:23:07;20.30;;;9.88;;
41233;SDS011;26968;42.686;23.352;2023-04-24T06:25:32;16.88;;;9.07;;
41233;SDS011;26968;42.686;23.352;2023-04-24T06:27:58;27.33;;;9.15;;
41233;SDS011;26968;42.686;23.352;2023-04-24T06:30:24;19.13;;;9.77;;
41233;SDS011;26968;42.686;23.352;2023-04-24T06:32:50;16.23;;;9.90;;
41233;SDS011;26968;42.686;23.352;2023-04-24T06:35:15;20.10;;;9.32;;
41233;SDS011;26968;42.686;23.352;2023-04-24T06:37:42;14.65;;;9.30;;
41233;SDS011;26968;42.686;23.352;2023-04-24T06:40:08;23.23;;;10.23;;
41233;SDS011;26968;42.686;23.352;2023-04-24T06:42:34;21.52;;;9.05;;
41233;SDS011;26968;42.686;23.352;2023-04-24T06:45:00;25.95;;;10.85;;
41233;SDS011;26968;42.686;23.352;2023-04-24T06:47:26;20.52;;;10.27;;
41233;SDS011;26968;42.686;23.352;2023-04-24T06:49:51;27.17;;;10.80;;
41233;SDS011;26968;42.686;23.352;2023-04-24T06:52:17;32.38;;;17.00;;
41233;SDS011;26968;42.686;23.352;2023-04-24T06:54:43;26.10;;;10.05;;
41233;SDS011;26968;42.686;23.352;2023-04-24T06:57:09;21.73;;;10.02;;
41233;SDS011;26968;42.686;23.352;2023-04-24T06:59:35;23.83;;;10.20;;
41233;SDS011;26968;42.686;23.352;2023-04-24T07:02:01;20.27;;;10.38;;
41233;SDS011;26968;42.686;23.352;2023-04-24T07:04:26;22.08;;;11.43;;
41233;SDS011;26968;42.686;23.352;2023-04-24T07:06:52;24.77;;;9.80;;
41233;SDS011;26968;42.686;23.352;2023-04-24T07:09:22;28.00;;;9.95;;
41233;SDS011;26968;42.686;23.352;2023-04-24T07:11:50;16.15;;;9.45;;
41233;SDS011;26968;42.686;23.352;2023-04-24T07:14:16;28.70;;;10.60;;
41233;SDS011;26968;42.686;23.352;2023-04-24T07:16:42;22.25;;;9.85;;
41233;SDS011;26968;42.686;23.352;2023-04-24T07:19:08;22.83;;;10.10;;
41233;SDS011;26968;42.686;23.352;2023-04-24T07:21:34;20.15;;;9.77;;
41233;SDS011;26968;42.686;23.352;2023-04-24T07:23:59;24.50;;;9.88;;
41233;SDS011;26968;42.686;23.352;2023-04-24T07:26:26;21.17;;;10.43;;
41233;SDS011;26968;42.686;23.352;2023-04-24T07:28:53;27.83;;;12.02;;
41233;SDS011;26968;42.686;23.352;2023-04-24T07:31:18;21.35;;;10.85;;
41233;SDS011;26968;42.686;23.352;2023-04-24T07:33:46;26.83;;;11.85;;
41233;SDS011;26968;42.686;23.352;2023-04-24T07:36:12;23.63;;;11.35;;
41233;SDS011;26968;42.686;23.352;2023-04-24T07:38:42;18.80;;;10.38;;
41233;SDS011;26968;42.686;23.352;2023-04-24T07:41:07;22.50;;;9.38;;
41233;SDS011;26968;42.686;23.352;2023-04-24T07:43:33;16.83;;;8.90;;
41233;SDS011;26968;42.686;23.352;2023-04-24T07:45:59;19.33;;;8.13;;
41233;SDS011;26968;42.686;23.352;2023-04-24T07:48:24;22.33;;;9.02;;
41233;SDS011;26968;42.686;23.352;2023-04-24T07:50:51;13.20;;;8.38;;
41233;SDS011;26968;42.686;23.352;2023-04-24T07:53:17;21.00;;;8.70;;
41233;SDS011;26968;42.686;23.352;2023-04-24T07:55:42;16.92;;;7.43;;
41233;SDS011;26968;42.686;23.352;2023-04-24T07:58:08;19.50;;;7.22;;
41233;SDS011;26968;42.686;23.352;2023-04-24T08:00:33;21.77;;;8.40;;
41233;SDS011;26968;42.686;23.352;2023-04-24T08:02:59;19.95;;;8.18;;
41233;SDS011;26968;42.686;23.352;2023-04-24T08:05:24;20.73;;;8.13;;
41233;SDS011;26968;42.686;23.352;2023-04-24T08:07:52;24.90;;;9.48;;
41233;SDS011;26968;42.686;23.352;2023-04-24T08:10:17;16.08;;;7.78;;
41233;SDS011;26968;42.686;23.352;2023-04-24T08:12:43;19.73;;;7.95;;
41233;SDS011;26968;42.686;23.352;2023-04-24T08:15:08;11.90;;;7.00;;
41233;SDS011;26968;42.686;23.352;2023-04-24T08:17:34;11.82;;;7.70;;
41233;SDS011;26968;42.686;23.352;2023-04-24T08:20:00;14.77;;;7.75;;
41233;SDS011;26968;42.686;23.352;2023-04-24T08:22:29;16.88;;;7.93;;
41233;SDS011;26968;42.686;23.352;2023-04-24T08:24:55;19.00;;;9.02;;
41233;SDS011;26968;42.686;23.352;2023-04-24T08:27:22;12.27;;;7.22;;
41233;SDS011;26968;42.686;23.352;2023-04-24T08:29:52;11.90;;;6.47;;
41233;SDS011;26968;42.686;23.352;2023-04-24T08:32:18;10.55;;;6.32;;
41233;SDS011;26968;42.686;23.352;2023-04-24T08:34:43;17.98;;;7.57;;
41233;SDS011;26968;42.686;23.352;2023-04-24T08:37:09;21.25;;;7.38;;
41233;SDS011;26968;42.686;23.352;2023-04-24T08:39:35;18.90;;;7.18;;
41233;SDS011;26968;42.686;23.352;2023-04-24T08:42:01;13.23;;;6.53;;
41233;SDS011;26968;42.686;23.352;2023-04-24T08:44:33;14.75;;;6.65;;
41233;SDS011;26968;42.686;23.352;2023-04-24T08:47:01;15.93;;;6.90;;
41233;SDS011;26968;42.686;23.352;2023-04-24T08:49:27;13.55;;;7.13;;
41233;SDS011;26968;42.686;23.352;2023-04-24T08:51:53;18.88;;;7.35;;
41233;SDS011;26968;42.686;23.352;2023-04-24T08:54:19;15.85;;;7.53;;
41233;SDS011;26968;42.686;23.352;2023-04-24T08:56:44;13.48;;;7.38;;
41233;SDS011;26968;42.686;23.352;2023-04-24T08:59:12;17.30;;;6.13;;
41233;SDS011;26968;42.686;23.352;2023-04-24T09:01:39;16.02;;;6.82;;
41233;SDS011;26968;42.686;23.352;2023-04-24T09:04:06;15.45;;;6.38;;
41233;SDS011;26968;42.686;23.352;2023-04-24T09:06:35;15.77;;;6.70;;
41233;SDS011;26968;42.686;23.352;2023-04-24T09:09:01;12.43;;;5.93;;
41233;SDS011;26968;42.686;23.352;2023-04-24T09:11:29;13.75;;;6.78;;
41233;SDS011;26968;42.686;23.352;2023-04-24T09:13:56;11.02;;;6.53;;
41233;SDS011;26968;42.686;23.352;2023-04-24T09:16:22;12.40;;;6.07;;
41233;SDS011;26968;42.686;23.352;2023-04-24T09:18:51;12.73;;;6.35;;
41233;SDS011;26968;42.686;23.352;2023-04-24T09:21:16;12.32;;;6.28;;
41233;SDS011;26968;42.686;23.352;2023-04-24T09:23:42;11.23;;;6.20;;
41233;SDS011;26968;42.686;23.352;2023-04-24T09:26:09;10.02;;;5.70;;
41233;SDS011;26968;42.686;23.352;2023-04-24T09:28:36;12.38;;;6.68;;
41233;SDS011;26968;42.686;23.352;2023-04-24T09:31:03;13.38;;;5.95;;
41233;SDS011;26968;42.686;23.352;2023-04-24T09:33:29;11.45;;;6.07;;
41233;SDS011;26968;42.686;23.352;2023-04-24T09:35:54;12.68;;;6.30;;
41233;SDS011;26968;42.686;23.352;2023-04-24T09:38:30;14.18;;;5.97;;
41233;SDS011;26968;42.686;23.352;2023-04-24T09:40:58;11.57;;;5.40;;
41233;SDS011;26968;42.686;23.352;2023-04-24T09:43:26;11.55;;;5.60;;
41233;SDS011;26968;42.686;23.352;2023-04-24T09:45:53;14.52;;;6.32;;
41233;SDS011;26968;42.686;23.352;2023-04-24T09:48:29;13.15;;;6.20;;
41233;SDS011;26968;42.686;23.352;2023-04-24T09:50:56;19.52;;;6.28;;
41233;SDS011;26968;42.686;23.352;2023-04-24T09:53:24;7.07;;;4.97;;
41233;SDS011;26968;42.686;23.352;2023-04-24T09:55:51;12.60;;;5.40;;
41233;SDS011;26968;42.686;23.352;2023-04-24T09:58:18;10.68;;;5.00;;
41233;SDS011;26968;42.686;23.352;2023-04-24T10:00:49;13.70;;;5.05;;
41233;SDS011;26968;42.686;23.352;2023-04-24T10:03:18;8.00;;;5.07;;
41233;SDS011;26968;42.686;23.352;2023-04-24T10:05:44;10.90;;;5.47;;
41233;SDS011;26968;42.686;23.352;2023-04-24T10:08:11;11.13;;;4.85;;
41233;SDS011;26968;42.686;23.352;2023-04-24T10:10:39;17.45;;;5.50;;
41233;SDS011;26968;42.686;23.352;2023-04-24T10:13:13;12.20;;;5.10;;
41233;SDS011;26968;42.686;23.352;2023-04-24T10:15:40;7.35;;;4.47;;
41233;SDS011;26968;42.686;23.352;2023-04-24T10:18:07;9.38;;;4.20;;
41233;SDS011;26968;42.686;23.352;2023-04-24T10:20:34;8.45;;;4.32;;
41233;SDS011;26968;42.686;23.352;2023-04-24T10:23:02;11.05;;;4.18;;
41233;SDS011;26968;42.686;23.352;2023-04-24T10:25:34;7.30;;;4.20;;
41233;SDS011;26968;42.686;23.352;2023-04-24T10:28:00;15.43;;;4.57;;
41233;SDS011;26968;42.686;23.352;2023-04-24T10:30:28;9.65;;;4.10;;
41233;SDS011;26968;42.686;23.352;2023-04-24T10:33:03;10.95;;;3.90;;
41233;SDS011;26968;42.686;23.352;2023-04-24T10:35:32;13.02;;;4.75;;
41233;SDS011;26968;42.686;23.352;2023-04-24T10:38:42;9.05;;;4.10;;
41233;SDS011;26968;42.686;23.352;2023-04-24T10:40:50;10.53;;;4.27;;
41233;SDS011;26968;42.686;23.352;2023-04-24T10:43:16;14.25;;;5.18;;
41233;SDS011;26968;42.686;23.352;2023-04-24T10:45:59;12.95;;;4.97;;
41233;SDS011;26968;42.686;23.352;2023-04-24T10:48:27;9.60;;;4.45;;
41233;SDS011;26968;42.686;23.352;2023-04-24T10:50:52;8.77;;;4.05;;
41233;SDS011;26968;42.686;23.352;2023-04-24T10:53:26;8.45;;;3.83;;
41233;SDS011;26968;42.686;23.352;2023-04-24T10:58:22;18.15;;;4.75;;
41233;SDS011;26968;42.686;23.352;2023-04-24T11:00:55;10.05;;;3.95;;
41233;SDS011;26968;42.686;23.352;2023-04-24T11:03:31;8.75;;;4.05;;
41233;SDS011;26968;42.686;23.352;2023-04-24T11:08:31;10.95;;;4.25;;
41233;SDS011;26968;42.686;23.352;2023-04-24T11:16:29;15.57;;;5.43;;
41233;SDS011;26968;42.686;23.352;2023-04-24T11:19:28;14.77;;;5.25;;
41233;SDS011;26968;42.686;23.352;2023-04-24T11:21:58;14.98;;;5.38;;
41233;SDS011;26968;42.686;23.352;2023-04-24T11:27:47;17.58;;;5.03;;
41233;SDS011;26968;42.686;23.352;2023-04-24T11:30:18;17.65;;;5.97;;
41233;SDS011;26968;42.686;23.352;2023-04-24T11:32:47;16.45;;;5.15;;
41233;SDS011;26968;42.686;23.352;2023-04-24T11:35:16;13.60;;;5.60;;
41233;SDS011;26968;42.686;23.352;2023-04-24T11:37:43;17.15;;;5.80;;
41233;SDS011;26968;42.686;23.352;2023-04-24T11:40:14;16.85;;;5.72;;
41233;SDS011;26968;42.686;23.352;2023-04-24T11:42:41;6.82;;;3.80;;
41233;SDS011;26968;42.686;23.352;2023-04-24T11:45:08;9.10;;;5.00;;
41233;SDS011;26968;42.686;23.352;2023-04-24T11:47:36;5.30;;;4.75;;
41233;SDS011;26968;42.686;23.352;2023-04-24T11:50:02;8.32;;;4.22;;
41233;SDS011;26968;42.686;23.352;2023-04-24T11:52:30;10.65;;;4.28;;
41233;SDS011;26968;42.686;23.352;2023-04-24T11:54:56;4.72;;;4.30;;
41233;SDS011;26968;42.686;23.352;2023-04-24T11:57:22;8.07;;;4.40;;
41233;SDS011;26968;42.686;23.352;2023-04-24T11:59:52;10.40;;;4.57;;
41233;SDS011;26968;42.686;23.352;2023-04-24T12:02:22;6.47;;;4.22;;
41233;SDS011;26968;42.686;23.352;2023-04-24T12:04:54;6.47;;;5.00;;
41233;SDS011;26968;42.686;23.352;2023-04-24T12:07:21;6.85;;;4.60;;
41233;SDS011;26968;42.686;23.352;2023-04-24T12:09:48;7.40;;;5.45;;
41233;SDS011;26968;42.686;23.352;2023-04-24T12:12:23;4.00;;;3.60;;
41233;SDS011;26968;42.686;23.352;2023-04-24T12:14:54;5.68;;;4.05;;
41233;SDS011;26968;42.686;23.352;2023-04-24T12:17:30;6.53;;;4.50;;
41233;SDS011;26968;42.686;23.352;2023-04-24T12:19:57;6.57;;;4.90;;
41233;SDS011;26968;42.686;23.352;2023-04-24T12:22:28;8.48;;;4.75;;
41233;SDS011;26968;42.686;23.352;2023-04-24T12:25:09;7.28;;;4.78;;
41233;SDS011;26968;42.686;23.352;2023-04-24T12:27:35;7.43;;;4.50;;
41233;SDS011;26968;42.686;23.352;2023-04-24T12:30:02;9.82;;;4.32;;
41233;SDS011;26968;42.686;23.352;2023-04-24T12:32:30;9.32;;;4.28;;
41233;SDS011;26968;42.686;23.352;2023-04-24T12:34:56;8.32;;;4.68;;
41233;SDS011;26968;42.686;23.352;2023-04-24T12:37:26;5.75;;;3.40;;
41233;SDS011;26968;42.686;23.352;2023-04-24T12:40:07;9.00;;;3.85;;
41233;SDS011;26968;42.686;23.352;2023-04-24T12:42:34;6.82;;;4.28;;
41233;SDS011;26968;42.686;23.352;2023-04-24T12:45:02;7.75;;;3.42;;
41233;SDS011;26968;42.686;23.352;2023-04-24T12:47:29;14.25;;;3.92;;
41233;SDS011;26968;42.686;23.352;2023-04-24T12:49:56;8.40;;;3.45;;
41233;SDS011;26968;42.686;23.352;2023-04-24T12:52:25;4.00;;;3.20;;
41233;SDS011;26968;42.686;23.352;2023-04-24T12:54:55;7.28;;;3.42;;
41233;SDS011;26968;42.686;23.352;2023-04-24T12:57:23;10.68;;;4.50;;
41233;SDS011;26968;42.686;23.352;2023-04-24T12:59:49;5.30;;;3.80;;
41233;SDS011;26968;42.686;23.352;2023-04-24T13:02:15;9.45;;;3.83;;
41233;SDS011;26968;42.686;23.352;2023-04-24T13:04:46;10.98;;;4.40;;
41233;SDS011;26968;42.686;23.352;2023-04-24T13:07:12;7.53;;;4.20;;
41233;SDS011;26968;42.686;23.352;2023-04-24T13:09:41;11.95;;;4.70;;
41233;SDS011;26968;42.686;23.352;2023-04-24T13:12:08;6.90;;;4.25;;
41233;SDS011;26968;42.686;23.352;2023-04-24T13:14:34;15.30;;;4.97;;
41233;SDS011;26968;42.686;23.352;2023-04-24T13:17:00;6.82;;;3.83;;
41233;SDS011;26968;42.686;23.352;2023-04-24T13:19:26;11.55;;;4.82;;
41233;SDS011;26968;42.686;23.352;2023-04-24T13:21:53;6.80;;;4.30;;
41233;SDS011;26968;42.686;23.352;2023-04-24T13:24:20;6.68;;;4.43;;
41233;SDS011;26968;42.686;23.352;2023-04-24T13:26:46;7.90;;;4.13;;
41233;SDS011;26968;42.686;23.352;2023-04-24T13:29:11;10.48;;;4.07;;
41233;SDS011;26968;42.686;23.352;2023-04-24T13:31:37;9.18;;;4.20;;
41233;SDS011;26968;42.686;23.352;2023-04-24T13:34:02;10.85;;;4.32;;
41233;SDS011;26968;42.686;23.352;2023-04-24T13:36:28;9.57;;;3.90;;
41233;SDS011;26968;42.686;23.352;2023-04-24T13:38:55;12.63;;;4.13;;
41233;SDS011;26968;42.686;23.352;2023-04-24T13:41:20;10.32;;;4.13;;
41233;SDS011;26968;42.686;23.352;2023-04-24T13:43:46;7.60;;;4.15;;
41233;SDS011;26968;42.686;23.352;2023-04-24T13:46:11;8.95;;;4.10;;
41233;SDS011;26968;42.686;23.352;2023-04-24T13:48:36;6.70;;;3.28;;
41233;SDS011;26968;42.686;23.352;2023-04-24T13:51:02;9.55;;;3.50;;
41233;SDS011;26968;42.686;23.352;2023-04-24T13:53:28;8.57;;;4.28;;
41233;SDS011;26968;42.686;23.352;2023-04-24T13:55:53;6.22;;;3.90;;
41233;SDS011;26968;42.686;23.352;2023-04-24T13:58:19;12.63;;;4.57;;
41233;SDS011;26968;42.686;23.352;2023-04-24T14:00:44;6.07;;;3.20;;
41233;SDS011;26968;42.686;23.352;2023-04-24T14:03:10;11.77;;;4.10;;
41233;SDS011;26968;42.686;23.352;2023-04-24T14:05:36;7.43;;;3.38;;
41233;SDS011;26968;42.686;23.352;2023-04-24T14:08:01;11.43;;;4.00;;
41233;SDS011;26968;42.686;23.352;2023-04-24T14:10:26;11.55;;;4.32;;
41233;SDS011;26968;42.686;23.352;2023-04-24T14:12:54;7.68;;;3.78;;
41233;SDS011;26968;42.686;23.352;2023-04-24T14:15:20;7.20;;;3.35;;
41233;SDS011;26968;42.686;23.352;2023-04-24T14:17:46;16.88;;;4.20;;
41233;SDS011;26968;42.686;23.352;2023-04-24T14:20:12;8.02;;;3.40;;
41233;SDS011;26968;42.686;23.352;2023-04-24T14:22:38;11.52;;;4.10;;
41233;SDS011;26968;42.686;23.352;2023-04-24T14:25:04;11.68;;;3.63;;
41233;SDS011;26968;42.686;23.352;2023-04-24T14:27:31;6.97;;;3.40;;
41233;SDS011;26968;42.686;23.352;2023-04-24T14:29:57;4.63;;;3.22;;
41233;SDS011;26968;42.686;23.352;2023-04-24T14:32:22;7.88;;;3.03;;
41233;SDS011;26968;42.686;23.352;2023-04-24T14:34:48;6.65;;;3.83;;